Las Peladas, Argentina
Current Conditions -  °F | °C
As of 7:00 AM on Saturday 29 Nov 2014 (Local Time) from SCAT Reporting Station
NA  
Wind Chill: 55°   Ceiling: NA
Heat Index: 55°   Visibility: 2.5mi
Dew Point: 52°   Wind: 5mph
Humidity: 88%   Direction: 270°W
Pressure: 29.97"   Gusts: NA
Location:  27.04°S, 68.09°W
Report Text: SCAT 291000Z AUTO 27004KT 4000 // ///003 13/11 Q1015
Loading
Personal Weather Stations






























Interactive Weather Map New forecast layout! Learn more

10-Day Weather Forecast

Advertisements
Track Severe Weather on mobile